createdAt,value
2019-03-21T00:00:30.627Z,16.27
2019-03-21T00:03:00.360Z,10.20
2019-03-21T00:05:32.738Z,10.00
2019-03-21T00:08:02.478Z,13.43
2019-03-21T00:11:15.820Z,12.90
2019-03-21T00:13:46.023Z,13.37
2019-03-21T00:16:15.830Z,15.53
2019-03-21T00:18:45.561Z,13.93
2019-03-21T00:21:15.329Z,18.13
2019-03-21T00:23:46.195Z,13.37
2019-03-21T00:26:16.292Z,10.57
2019-03-21T00:28:46.017Z,12.10
2019-03-21T00:31:17.288Z,14.73
2019-03-21T00:33:48.191Z,12.20
2019-03-21T00:36:17.899Z,11.93
2019-03-21T00:38:49.890Z,12.43
2019-03-21T00:41:21.255Z,14.90
2019-03-21T00:43:51.548Z,12.33
2019-03-21T00:46:21.918Z,9.20
2019-03-21T00:48:52.392Z,13.07
2019-03-21T00:51:22.109Z,11.30
2019-03-21T00:53:54.338Z,11.97
2019-03-21T00:56:25.322Z,9.97
2019-03-21T00:58:56.332Z,12.43
2019-03-21T01:01:26.052Z,14.60
2019-03-21T01:03:57.417Z,15.40
2019-03-21T01:06:27.852Z,14.27
2019-03-21T01:08:57.618Z,13.93
2019-03-21T01:11:27.370Z,9.27
2019-03-21T01:13:57.104Z,10.87
2019-03-21T01:16:27.242Z,13.03
2019-03-21T01:18:57.212Z,12.53
2019-03-21T01:21:27.484Z,9.23
2019-03-21T01:23:57.218Z,10.57
2019-03-21T01:26:27.266Z,11.80
2019-03-21T01:28:56.978Z,13.27
2019-03-21T01:31:26.676Z,14.43
2019-03-21T01:33:57.233Z,11.23
2019-03-21T01:36:28.026Z,12.30
2019-03-21T01:38:58.836Z,9.83
2019-03-21T01:41:28.861Z,10.97
2019-03-21T01:44:00.836Z,7.93
2019-03-21T01:46:31.119Z,10.20
2019-03-21T01:49:00.815Z,8.80
2019-03-21T01:51:31.512Z,9.60
2019-03-21T01:54:02.190Z,13.33
2019-03-21T01:56:34.229Z,12.73
2019-03-21T01:59:07.129Z,8.90
2019-03-21T02:01:40.093Z,8.33
2019-03-21T02:04:10.603Z,13.77
2019-03-21T02:06:40.355Z,9.67
2019-03-21T02:09:12.043Z,11.20
2019-03-21T02:11:44.229Z,10.23
2019-03-21T02:14:14.262Z,12.23
2019-03-21T02:16:46.618Z,12.77
2019-03-21T02:19:16.304Z,11.73
2019-03-21T02:21:46.900Z,15.47
2019-03-21T02:24:17.123Z,11.17
2019-03-21T02:26:51.144Z,12.63
2019-03-21T02:29:21.115Z,11.13
2019-03-21T02:31:51.471Z,9.90
2019-03-21T02:34:23.246Z,12.37
2019-03-21T02:36:57.571Z,11.77
2019-03-21T02:39:27.644Z,10.70
2019-03-21T02:41:57.627Z,9.80
2019-03-21T02:44:27.953Z,10.83
2019-03-21T02:47:00.711Z,11.10
2019-03-21T02:49:33.400Z,11.50
2019-03-21T02:52:03.162Z,10.23
2019-03-21T02:54:33.666Z,14.83
2019-03-21T02:57:06.216Z,12.70
2019-03-21T02:59:36.216Z,14.73
2019-03-21T03:02:08.492Z,14.43
2019-03-21T03:04:38.299Z,11.97
2019-03-21T03:07:08.535Z,10.40
2019-03-21T03:09:39.459Z,10.87
2019-03-21T03:12:09.463Z,13.33
2019-03-21T03:14:41.832Z,10.03
2019-03-21T03:17:13.538Z,13.33
2019-03-21T03:19:45.552Z,12.63
2019-03-21T03:22:19.528Z,12.47
2019-03-21T03:24:49.997Z,10.23
2019-03-21T03:27:20.322Z,10.97
2019-03-21T03:29:50.831Z,13.13
2019-03-21T03:32:20.534Z,11.57
2019-03-21T03:34:51.161Z,13.57
2019-03-21T03:37:24.944Z,11.90
2019-03-21T03:39:56.797Z,13.17
2019-03-21T03:42:28.537Z,10.13
2019-03-21T03:44:59.933Z,11.13
2019-03-21T03:47:29.897Z,9.50
2019-03-21T03:50:00.707Z,11.83
2019-03-21T03:52:30.341Z,8.07
2019-03-21T03:55:03.438Z,9.00
2019-03-21T03:57:33.121Z,9.40
2019-03-21T04:00:03.213Z,11.83
2019-03-21T04:02:34.577Z,12.53
2019-03-21T04:05:08.975Z,11.53
2019-03-21T04:07:39.423Z,10.57
2019-03-21T04:10:15.740Z,11.30
2019-03-21T04:12:46.397Z,10.47
2019-03-21T04:15:18.155Z,8.97
2019-03-21T04:17:49.555Z,10.03
2019-03-21T04:20:21.728Z,8.20
2019-03-21T04:22:51.850Z,8.70
2019-03-21T04:25:32.995Z,10.03
2019-03-21T04:28:03.972Z,7.87
2019-03-21T04:30:35.765Z,10.43
2019-03-21T04:33:06.306Z,9.30
2019-03-21T04:35:36.026Z,10.40
2019-03-21T04:38:06.209Z,8.70
2019-03-21T04:40:36.923Z,10.77
2019-03-21T04:43:06.891Z,10.33
2019-03-21T04:45:38.654Z,9.40
2019-03-21T04:48:08.385Z,9.53
2019-03-21T04:50:38.983Z,9.93
2019-03-21T04:53:08.706Z,10.67
2019-03-21T04:55:42.587Z,9.73
2019-03-21T04:58:12.448Z,12.13
2019-03-21T05:00:42.163Z,11.90
2019-03-21T05:03:12.305Z,11.03
2019-03-21T05:05:42.017Z,9.77
2019-03-21T05:08:11.762Z,11.47
2019-03-21T05:10:41.851Z,9.47
2019-03-21T05:13:14.744Z,12.10
2019-03-21T05:15:53.674Z,10.83
2019-03-21T05:18:45.093Z,10.47
2019-03-21T05:21:17.571Z,10.17
2019-03-21T05:23:47.985Z,9.47
2019-03-21T05:26:17.826Z,8.43
2019-03-21T05:28:47.883Z,11.63
2019-03-21T05:31:23.423Z,9.80
2019-03-21T05:34:05.408Z,7.87
2019-03-21T05:36:36.008Z,10.13
2019-03-21T05:39:08.797Z,9.67
2019-03-21T05:41:38.825Z,10.53
2019-03-21T05:44:17.134Z,12.53
2019-03-21T05:46:47.673Z,10.77
2019-03-21T05:49:18.171Z,10.97
2019-03-21T05:51:49.819Z,9.20
2019-03-21T05:54:21.508Z,12.37
2019-03-21T05:56:51.566Z,11.27
2019-03-21T05:59:26.478Z,9.13
2019-03-21T06:01:56.681Z,9.90
2019-03-21T06:04:31.433Z,9.43
2019-03-21T06:07:15.865Z,10.33
2019-03-21T06:09:45.578Z,9.93
2019-03-21T06:12:15.274Z,8.80
2019-03-21T06:14:53.160Z,10.67
2019-03-21T06:17:31.774Z,9.90
2019-03-21T06:20:28.879Z,12.53
2019-03-21T06:23:17.447Z,10.60
2019-03-21T06:26:18.618Z,14.97
2019-03-21T06:28:48.494Z,12.03
2019-03-21T06:31:18.320Z,13.73
2019-03-21T06:34:01.205Z,17.10
2019-03-21T06:36:33.211Z,13.13
2019-03-21T06:39:07.022Z,12.67
2019-03-21T06:41:47.581Z,14.30
2019-03-21T06:44:19.953Z,14.77
2019-03-21T06:46:50.720Z,13.53
2019-03-21T06:49:20.846Z,13.37
2019-03-21T06:51:51.642Z,13.13
2019-03-21T06:54:26.429Z,13.47
2019-03-21T06:56:57.723Z,12.33
2019-03-21T06:59:28.271Z,10.40
2019-03-21T07:01:58.287Z,14.10
2019-03-21T07:04:28.446Z,12.10
2019-03-21T07:07:07.646Z,15.30
2019-03-21T07:09:29.607Z,19.83
2019-03-21T07:12:16.218Z,11.37
2019-03-21T07:14:46.774Z,17.43
2019-03-21T07:17:23.171Z,16.50
2019-03-21T07:19:53.018Z,14.53
2019-03-21T07:22:23.800Z,15.77
2019-03-21T07:24:54.185Z,13.23
2019-03-21T07:27:29.683Z,14.17
2019-03-21T07:29:59.907Z,14.57
2019-03-21T07:32:33.600Z,12.50
2019-03-21T07:35:02.006Z,12.07
2019-03-21T07:37:32.931Z,16.50
2019-03-21T07:40:02.672Z,13.63
2019-03-21T07:42:32.411Z,14.07
2019-03-21T07:45:02.152Z,14.13
2019-03-21T07:47:33.967Z,13.30
2019-03-21T07:50:04.091Z,13.83
2019-03-21T07:52:34.103Z,12.33
2019-03-21T07:55:04.441Z,14.60
2019-03-21T07:57:36.530Z,17.47
2019-03-21T08:00:08.693Z,14.47
2019-03-21T08:02:38.443Z,14.33
2019-03-21T08:05:08.922Z,14.47
2019-03-21T08:07:38.644Z,12.43
2019-03-21T08:10:10.048Z,14.67
2019-03-21T08:12:40.998Z,17.17
2019-03-21T08:15:11.543Z,15.87
2019-03-21T08:17:41.661Z,11.83
2019-03-21T08:20:12.227Z,12.23
2019-03-21T08:22:42.821Z,13.63
2019-03-21T08:25:13.135Z,12.53
2019-03-21T08:27:43.509Z,15.90
2019-03-21T08:30:27.327Z,12.30
2019-03-21T08:32:56.887Z,14.87
2019-03-21T08:35:26.614Z,16.03
2019-03-21T08:37:56.337Z,11.63
2019-03-21T08:40:28.279Z,13.00
2019-03-21T08:43:05.485Z,13.17
2019-03-21T08:45:35.754Z,13.23
2019-03-21T08:48:06.120Z,16.17
2019-03-21T08:50:37.474Z,12.57
2019-03-21T08:53:07.478Z,13.03
2019-03-21T08:55:42.987Z,11.10
2019-03-21T08:58:12.823Z,11.20
2019-03-21T09:00:44.561Z,12.80
2019-03-21T09:03:14.985Z,14.47
2019-03-21T09:05:45.037Z,14.40
2019-03-21T09:08:15.583Z,14.70
2019-03-21T09:10:48.003Z,11.90
2019-03-21T09:13:21.596Z,9.90
2019-03-21T09:15:53.889Z,12.67
2019-03-21T09:18:23.912Z,11.77
2019-03-21T09:20:54.138Z,11.93
2019-03-21T09:23:25.679Z,14.13
2019-03-21T09:25:55.801Z,11.20
2019-03-21T09:28:28.998Z,12.17
2019-03-21T09:30:58.764Z,11.53
2019-03-21T09:33:29.255Z,12.40
2019-03-21T09:35:59.002Z,13.87
2019-03-21T09:38:28.707Z,10.20
2019-03-21T09:40:58.570Z,11.87
2019-03-21T09:43:28.631Z,10.03
2019-03-21T09:45:58.371Z,10.80
2019-03-21T09:48:28.409Z,9.57
2019-03-21T09:50:59.843Z,9.30
2019-03-21T09:53:29.878Z,9.33
2019-03-21T09:56:01.282Z,10.23
2019-03-21T09:58:31.077Z,7.40
2019-03-21T10:01:02.873Z,9.80
2019-03-21T10:03:35.632Z,8.63
2019-03-21T10:06:05.753Z,7.33
2019-03-21T10:08:36.926Z,8.23
2019-03-21T10:11:07.016Z,7.53
2019-03-21T10:13:39.573Z,6.73
2019-03-21T10:16:10.700Z,9.63
2019-03-21T10:18:40.699Z,6.77
2019-03-21T10:21:11.271Z,7.57
2019-03-21T10:23:41.626Z,5.83
2019-03-21T10:26:12.980Z,7.17
2019-03-21T10:28:54.449Z,6.80
2019-03-21T10:31:24.991Z,6.00
2019-03-21T10:33:55.814Z,7.83
2019-03-21T10:36:31.184Z,6.37
2019-03-21T10:39:00.879Z,7.30
2019-03-21T10:41:31.406Z,7.37
2019-03-21T10:44:02.177Z,6.90
2019-03-21T10:46:32.460Z,7.37
2019-03-21T10:49:02.152Z,7.87
2019-03-21T10:51:32.224Z,8.23
2019-03-21T10:54:03.329Z,8.30
2019-03-21T10:56:36.213Z,10.37
2019-03-21T10:59:07.147Z,6.60
2019-03-21T11:01:36.897Z,7.50
2019-03-21T11:04:06.644Z,7.60
2019-03-21T11:06:36.692Z,5.53
2019-03-21T11:09:09.197Z,6.63
2019-03-21T11:11:41.090Z,8.67
2019-03-21T11:14:11.395Z,15.47
2019-03-21T11:16:41.849Z,6.03
2019-03-21T11:19:12.116Z,8.67
2019-03-21T11:21:43.278Z,5.83
2019-03-21T11:24:13.537Z,7.27
2019-03-21T11:26:43.338Z,7.70
2019-03-21T11:29:15.006Z,8.43
2019-03-21T11:31:45.095Z,8.73
2019-03-21T11:34:19.687Z,7.03
2019-03-21T11:36:49.737Z,7.27
2019-03-21T11:39:20.626Z,8.40
2019-03-21T11:41:51.034Z,9.87
2019-03-21T11:44:21.578Z,7.07
2019-03-21T11:46:51.517Z,6.77
2019-03-21T11:49:21.580Z,6.53
2019-03-21T11:51:51.229Z,6.77
2019-03-21T11:54:20.947Z,8.50
2019-03-21T11:56:51.413Z,7.33
2019-03-21T11:59:21.413Z,7.20
2019-03-21T12:01:52.265Z,8.10
2019-03-21T12:04:22.002Z,7.70
2019-03-21T12:06:52.286Z,7.00
2019-03-21T12:09:22.383Z,6.93
2019-03-21T12:11:54.302Z,6.27
2019-03-21T12:14:32.507Z,7.47
2019-03-21T12:17:05.147Z,9.17
2019-03-21T12:19:46.454Z,6.20
2019-03-21T12:22:29.469Z,7.20
2019-03-21T12:24:52.472Z,8.30
2019-03-21T12:27:24.476Z,8.13
2019-03-21T12:29:56.221Z,9.20
2019-03-21T12:32:28.054Z,5.37
2019-03-21T12:34:59.617Z,4.50
2019-03-21T12:37:29.336Z,6.07
2019-03-21T12:39:59.121Z,7.33
2019-03-21T12:42:30.334Z,6.13
2019-03-21T12:45:02.784Z,7.27
2019-03-21T12:47:39.319Z,6.10
2019-03-21T12:50:31.131Z,7.17
2019-03-21T12:53:04.366Z,6.17
2019-03-21T12:55:37.375Z,6.80
2019-03-21T12:58:12.393Z,6.50
2019-03-21T13:00:55.156Z,8.03
2019-03-21T13:03:27.135Z,7.27
2019-03-21T13:05:58.008Z,6.27
2019-03-21T13:08:33.961Z,6.40
2019-03-21T13:11:14.361Z,5.43
2019-03-21T13:13:47.668Z,6.50
2019-03-21T13:16:21.260Z,6.87
2019-03-21T13:18:51.342Z,8.20
2019-03-21T13:21:21.419Z,5.40
2019-03-21T13:23:51.811Z,6.53
2019-03-21T13:26:21.950Z,7.60
2019-03-21T13:28:51.932Z,6.43
2019-03-21T13:31:22.314Z,7.47
2019-03-21T13:33:52.072Z,6.63
2019-03-21T13:36:23.287Z,6.40
2019-03-21T13:38:53.822Z,4.67
2019-03-21T13:41:27.537Z,5.10
2019-03-21T13:43:58.117Z,7.03
2019-03-21T13:46:29.998Z,7.70
2019-03-21T13:49:06.168Z,4.80
2019-03-21T13:51:36.603Z,5.67
2019-03-21T13:54:08.663Z,13.23
2019-03-21T13:56:38.569Z,6.27
2019-03-21T13:59:09.067Z,7.27
2019-03-21T14:01:40.407Z,5.90
2019-03-21T14:04:12.431Z,7.37
2019-03-21T14:06:46.024Z,5.63
2019-03-21T14:09:16.721Z,4.20
2019-03-21T14:11:47.431Z,5.10
2019-03-21T14:14:18.472Z,4.63
2019-03-21T14:16:51.143Z,5.77
2019-03-21T14:19:22.061Z,4.73
2019-03-21T14:21:52.098Z,7.10
2019-03-21T14:24:21.849Z,4.83
2019-03-21T14:26:51.574Z,5.30
2019-03-21T14:29:22.072Z,5.77
2019-03-21T14:31:51.798Z,7.50
2019-03-21T14:34:24.213Z,6.33
2019-03-21T14:36:54.504Z,6.93
2019-03-21T14:39:24.302Z,4.70
2019-03-21T14:41:54.482Z,5.80
2019-03-21T14:44:26.656Z,4.73
2019-03-21T14:47:00.433Z,7.00
2019-03-21T14:49:33.271Z,5.00
2019-03-21T14:52:03.924Z,5.00
2019-03-21T14:54:35.743Z,6.57
2019-03-21T14:57:06.426Z,5.03
2019-03-21T14:59:36.666Z,4.60
2019-03-21T15:02:06.417Z,5.70
2019-03-21T15:04:37.923Z,4.40
2019-03-21T15:07:09.605Z,5.67
2019-03-21T15:09:40.399Z,5.20
2019-03-21T15:12:15.376Z,4.67
2019-03-21T15:14:45.738Z,5.37
2019-03-21T15:17:15.534Z,4.00
2019-03-21T15:19:46.046Z,5.47
2019-03-21T15:22:18.352Z,6.73
2019-03-21T15:24:48.611Z,7.13
2019-03-21T15:27:18.396Z,5.30
2019-03-21T15:29:49.269Z,7.73
2019-03-21T15:32:18.999Z,6.90
2019-03-21T15:34:48.770Z,5.23
2019-03-21T15:37:21.918Z,4.53
2019-03-21T15:39:52.261Z,6.17
2019-03-21T15:42:22.847Z,5.30
2019-03-21T15:44:52.581Z,5.33
2019-03-21T15:47:22.738Z,6.60
2019-03-21T15:49:55.109Z,6.20
2019-03-21T15:52:24.851Z,4.43
2019-03-21T15:54:54.555Z,4.53
2019-03-21T15:57:24.670Z,5.23
2019-03-21T15:59:54.644Z,7.30
2019-03-21T16:02:24.782Z,5.37
2019-03-21T16:04:54.853Z,7.37
2019-03-21T16:07:25.652Z,16.30
2019-03-21T16:09:56.051Z,5.43
2019-03-21T16:12:34.788Z,4.03
2019-03-21T16:15:06.478Z,4.10
2019-03-21T16:17:38.921Z,5.75
2019-03-21T16:20:10.346Z,5.62
2019-03-21T16:22:41.393Z,7.60
2019-03-21T16:25:12.963Z,5.05
2019-03-21T16:27:48.054Z,5.15
2019-03-21T16:30:17.779Z,6.03
2019-03-21T16:32:48.063Z,5.45
2019-03-21T16:35:20.439Z,7.50
2019-03-21T16:37:53.891Z,5.28
2019-03-21T16:40:23.819Z,5.70
2019-03-21T16:42:54.410Z,4.80
2019-03-21T16:45:25.330Z,6.83
2019-03-21T16:47:56.878Z,4.78
2019-03-21T16:50:27.435Z,3.87
2019-03-21T16:52:57.185Z,5.22
2019-03-21T16:55:28.112Z,5.65
2019-03-21T16:57:57.921Z,4.35
2019-03-21T17:00:28.928Z,4.92
2019-03-21T17:02:58.706Z,5.78
2019-03-21T17:05:30.179Z,5.62
2019-03-21T17:08:10.380Z,4.47
2019-03-21T17:10:32.527Z,5.85
2019-03-21T17:13:04.519Z,7.25
2019-03-21T17:15:36.762Z,5.37
2019-03-21T17:18:06.505Z,4.60
2019-03-21T17:20:36.211Z,4.53
2019-03-21T17:23:06.561Z,3.03
2019-03-21T17:25:36.264Z,4.67
2019-03-21T17:28:07.023Z,4.93
2019-03-21T17:30:39.293Z,3.30
2019-03-21T17:33:09.697Z,4.50
2019-03-21T17:35:39.392Z,6.07
2019-03-21T17:38:09.792Z,5.70
2019-03-21T17:40:39.512Z,6.80
2019-03-21T17:43:12.082Z,5.00
2019-03-21T17:45:42.174Z,4.70
2019-03-21T17:48:12.964Z,4.80
2019-03-21T17:50:42.941Z,4.83
2019-03-21T17:53:12.983Z,6.53
2019-03-21T17:55:43.517Z,6.37
2019-03-21T17:58:16.180Z,5.53
2019-03-21T18:00:48.542Z,9.57
2019-03-21T18:03:18.864Z,8.33
2019-03-21T18:05:51.736Z,5.57
2019-03-21T18:08:26.372Z,18.90
2019-03-21T18:10:57.411Z,9.77
2019-03-21T18:13:29.034Z,7.37
2019-03-21T18:16:02.043Z,18.57
2019-03-21T18:18:32.082Z,16.37
2019-03-21T18:21:02.719Z,14.80
2019-03-21T18:23:34.369Z,11.47
2019-03-21T18:26:06.673Z,7.57
2019-03-21T18:28:37.051Z,12.00
2019-03-21T18:31:07.161Z,7.70
2019-03-21T18:33:36.912Z,9.87
2019-03-21T18:36:09.074Z,7.80
2019-03-21T18:38:40.152Z,9.53
2019-03-21T18:41:11.958Z,7.43
2019-03-21T18:43:44.298Z,10.33
2019-03-21T18:46:14.667Z,11.03
2019-03-21T18:48:47.442Z,9.20
2019-03-21T18:51:17.713Z,8.60
2019-03-21T18:53:47.730Z,7.87
2019-03-21T18:56:17.843Z,7.67
2019-03-21T18:58:49.128Z,9.00
2019-03-21T19:01:19.410Z,9.53
2019-03-21T19:03:49.412Z,7.97
2019-03-21T19:06:20.026Z,8.73
2019-03-21T19:08:54.038Z,8.87
2019-03-21T19:11:26.008Z,10.73
2019-03-21T19:13:58.387Z,8.97
2019-03-21T19:16:32.174Z,7.10
2019-03-21T19:19:04.830Z,12.87
2019-03-21T19:21:36.503Z,12.87
2019-03-21T19:24:07.565Z,12.80
2019-03-21T19:26:38.727Z,11.27
2019-03-21T19:29:09.666Z,14.13
2019-03-21T19:31:43.165Z,10.50
2019-03-21T19:34:13.506Z,10.07
2019-03-21T19:36:43.344Z,10.13
2019-03-21T19:39:16.826Z,11.30
2019-03-21T19:41:46.886Z,10.80
2019-03-21T19:44:17.429Z,9.53
2019-03-21T19:46:48.722Z,9.43
2019-03-21T19:49:20.056Z,13.90
2019-03-21T19:51:50.639Z,9.43
2019-03-21T19:54:21.853Z,11.73
2019-03-21T19:56:54.593Z,7.40
2019-03-21T19:59:26.368Z,8.13
2019-03-21T20:01:59.781Z,57.23
2019-03-21T20:04:30.485Z,19.43
2019-03-21T20:07:00.741Z,24.90
2019-03-21T20:09:31.411Z,12.23
2019-03-21T20:12:02.644Z,11.80
2019-03-21T20:14:32.765Z,9.63
2019-03-21T20:17:04.747Z,8.73
2019-03-21T20:19:39.467Z,7.07
2019-03-21T20:22:09.529Z,7.77
2019-03-21T20:24:40.194Z,10.00
2019-03-21T20:27:10.755Z,8.27
2019-03-21T20:29:42.273Z,7.43
2019-03-21T20:32:20.562Z,7.27
2019-03-21T20:34:44.150Z,8.73
2019-03-21T20:37:14.005Z,10.20
2019-03-21T20:39:45.062Z,6.97
2019-03-21T20:42:14.771Z,8.33
2019-03-21T20:44:44.550Z,19.63
2019-03-21T20:47:14.297Z,19.13
2019-03-21T20:49:44.422Z,14.20
2019-03-21T20:52:15.449Z,18.40
2019-03-21T20:54:45.223Z,369.13
2019-03-21T20:57:15.272Z,280.93
2019-03-21T20:59:46.217Z,88.57
2019-03-21T21:02:16.525Z,44.30
2019-03-21T21:04:47.252Z,34.00
2019-03-21T21:07:17.894Z,48.13
2019-03-21T21:09:48.310Z,18.13
2019-03-21T21:12:21.814Z,16.07
2019-03-21T21:14:52.332Z,13.67
2019-03-21T21:17:23.586Z,16.40
2019-03-21T21:19:55.640Z,23.57
2019-03-21T21:22:41.219Z,165.77
2019-03-21T21:25:11.897Z,156.93
2019-03-21T21:27:49.476Z,46.90
2019-03-21T21:30:15.298Z,28.73
2019-03-21T21:32:45.024Z,55.50
2019-03-21T21:35:15.619Z,133.00
2019-03-21T21:37:46.456Z,129.53
2019-03-21T21:40:17.542Z,117.20
2019-03-21T21:42:47.275Z,89.17
2019-03-21T21:45:17.195Z,80.67
2019-03-21T21:47:48.068Z,84.23
2019-03-21T21:50:20.187Z,31.23
2019-03-21T21:52:51.094Z,37.43
2019-03-21T21:55:21.188Z,29.07
2019-03-21T21:57:51.756Z,19.37
2019-03-21T22:00:21.716Z,20.67
2019-03-21T22:02:53.754Z,20.83
2019-03-21T22:05:23.517Z,13.87
2019-03-21T22:07:54.122Z,16.37
2019-03-21T22:10:29.425Z,21.53
2019-03-21T22:12:58.974Z,15.60
2019-03-21T22:15:30.691Z,16.33
2019-03-21T22:18:00.407Z,15.73
2019-03-21T22:20:32.079Z,14.37
2019-03-21T22:23:01.790Z,14.80
2019-03-21T22:25:31.878Z,15.50
2019-03-21T22:28:01.861Z,9.97
2019-03-21T22:30:32.640Z,9.30
2019-03-21T22:33:02.200Z,10.57
2019-03-21T22:35:32.087Z,43.37
2019-03-21T22:38:02.279Z,19.50
2019-03-21T22:40:34.565Z,11.60
2019-03-21T22:43:04.956Z,11.07
2019-03-21T22:45:34.723Z,10.20
2019-03-21T22:48:04.583Z,9.57
2019-03-21T22:50:35.253Z,13.03
2019-03-21T22:53:06.642Z,9.57
2019-03-21T22:55:36.405Z,8.73
2019-03-21T22:58:06.513Z,9.00
2019-03-21T23:00:44.504Z,9.93
2019-03-21T23:03:14.692Z,9.03
2019-03-21T23:05:54.944Z,7.00
2019-03-21T23:08:27.181Z,7.00
2019-03-21T23:10:57.808Z,9.83
2019-03-21T23:13:29.877Z,7.47
2019-03-21T23:15:59.929Z,7.47
2019-03-21T23:18:31.695Z,7.70
2019-03-21T23:21:02.909Z,9.13
2019-03-21T23:23:32.919Z,6.93
2019-03-21T23:26:03.238Z,7.70
2019-03-21T23:28:32.978Z,9.73
2019-03-21T23:31:02.704Z,8.13
2019-03-21T23:33:32.446Z,8.40
2019-03-21T23:36:02.155Z,6.63
2019-03-21T23:38:31.919Z,7.07
2019-03-21T23:41:02.460Z,7.47
2019-03-21T23:43:33.871Z,7.80
2019-03-21T23:46:03.836Z,9.67
2019-03-21T23:48:33.589Z,10.03
2019-03-21T23:51:04.767Z,10.60
2019-03-21T23:53:35.579Z,8.07
2019-03-21T23:56:06.930Z,8.70
2019-03-21T23:58:40.476Z,13.67
